Terminal Aerodrome Forecast
Issued by NWS Shreveport, LA

Home | Current Version | Previous Version | Text Only | Print | Product List | Glossary On
Versions: 1 2 3 4 5 6 7 8 9 10 11 12 13
000
FTUS44 KSHV 180500 RRA
TAFMLU
TAF
KMLU 180541Z 1806/1906 04005KT P6SM OVC070
     FM180800 04004KT P6SM VCSH OVC050
      TEMPO 1810/1812 -RA OVC035
     FM181200 05004KT P6SM -RA OVC035
     FM181600 05004KT P6SM VCSH OVC030
     FM181800 06005KT P6SM OVC025=

USA.gov is the U.S. government's official web portal to all federal, state and local government web resources and services.